createdAt,value
2022-10-12T00:01:20.444Z,6.90
2022-10-12T00:03:48.817Z,7.00
2022-10-12T00:06:21.479Z,7.20
2022-10-12T00:08:49.985Z,7.40
2022-10-12T00:11:29.132Z,7.50
2022-10-12T00:13:57.771Z,7.50
2022-10-12T00:16:25.834Z,7.50
2022-10-12T00:18:55.397Z,7.50
2022-10-12T00:21:23.206Z,7.50
2022-10-12T00:23:50.397Z,7.20
2022-10-12T00:26:19.893Z,7.30
2022-10-12T00:28:47.590Z,7.50
2022-10-12T00:31:19.887Z,7.50
2022-10-12T00:33:47.875Z,7.50
2022-10-12T00:36:24.320Z,7.50
2022-10-12T00:38:55.817Z,7.50
2022-10-12T00:41:26.092Z,7.30
2022-10-12T00:43:57.888Z,7.00
2022-10-12T00:46:28.186Z,6.80
2022-10-12T00:49:17.101Z,6.60
2022-10-12T00:51:48.203Z,6.60
2022-10-12T00:54:21.977Z,6.70
2022-10-12T00:56:52.743Z,6.80
2022-10-12T00:59:27.926Z,6.80
2022-10-12T01:01:55.898Z,6.80
2022-10-12T01:04:23.965Z,6.90
2022-10-12T01:06:51.453Z,7.10
2022-10-12T01:09:20.661Z,7.10
2022-10-12T01:11:48.069Z,7.00
2022-10-12T01:14:15.554Z,6.80
2022-10-12T01:17:05.760Z,6.60
2022-10-12T01:19:35.786Z,6.40
2022-10-12T01:22:09.288Z,6.40
2022-10-12T01:25:18.620Z,6.40
2022-10-12T01:27:52.889Z,6.50
2022-10-12T01:30:37.642Z,6.50
2022-10-12T01:33:24.504Z,6.60
2022-10-12T01:36:08.373Z,6.60
2022-10-12T01:38:56.100Z,6.80
2022-10-12T01:41:34.880Z,6.90
2022-10-12T01:44:01.738Z,7.00
2022-10-12T01:46:28.632Z,7.20
2022-10-12T01:48:59.216Z,7.30
2022-10-12T01:51:51.324Z,7.00
2022-10-12T01:54:37.053Z,6.90
2022-10-12T01:57:06.805Z,6.80
2022-10-12T02:00:00.781Z,7.00
2022-10-12T02:02:42.175Z,7.10
2022-10-12T02:05:45.771Z,7.00
2022-10-12T02:08:23.028Z,7.00
2022-10-12T02:11:11.735Z,7.00
2022-10-12T02:14:01.496Z,6.90
2022-10-12T02:16:33.750Z,6.50
2022-10-12T02:19:00.924Z,6.30
2022-10-12T02:21:32.301Z,6.10
2022-10-12T02:24:04.460Z,6.10
2022-10-12T02:26:34.148Z,6.30
2022-10-12T02:29:03.145Z,6.30
2022-10-12T02:31:45.400Z,6.20
2022-10-12T02:34:35.284Z,6.10
2022-10-12T02:37:18.222Z,6.00
2022-10-12T02:39:54.784Z,6.00
2022-10-12T02:42:52.221Z,5.90
2022-10-12T02:45:22.839Z,5.70
2022-10-12T02:47:52.782Z,5.70
2022-10-12T02:50:21.104Z,5.90
2022-10-12T02:52:49.794Z,6.10
2022-10-12T02:55:16.971Z,6.20
2022-10-12T02:57:43.732Z,6.30
2022-10-12T03:00:11.037Z,6.30
2022-10-12T03:02:38.235Z,6.40
2022-10-12T03:05:05.789Z,6.40
2022-10-12T03:07:32.733Z,6.50
2022-10-12T03:09:59.389Z,6.50
2022-10-12T03:12:26.473Z,6.30
2022-10-12T03:14:53.158Z,6.10
2022-10-12T03:17:20.158Z,6.10
2022-10-12T03:19:47.357Z,6.20
2022-10-12T03:22:14.205Z,6.30
2022-10-12T03:24:41.270Z,6.40
2022-10-12T03:27:08.885Z,6.20
2022-10-12T03:29:35.820Z,6.20
2022-10-12T03:32:02.934Z,6.30
2022-10-12T03:34:29.852Z,6.30
2022-10-12T03:36:56.490Z,6.40
2022-10-12T03:39:23.161Z,6.40
2022-10-12T03:41:50.177Z,6.20
2022-10-12T03:44:16.807Z,6.10
2022-10-12T03:46:43.471Z,6.10
2022-10-12T03:49:10.125Z,6.00
2022-10-12T03:51:37.163Z,6.00
2022-10-12T03:54:04.313Z,6.00
2022-10-12T03:56:31.236Z,6.00
2022-10-12T03:58:59.121Z,6.00
2022-10-12T04:01:27.069Z,6.20
2022-10-12T04:03:54.049Z,6.00
2022-10-12T04:06:21.160Z,6.00
2022-10-12T04:08:50.888Z,6.20
2022-10-12T04:11:20.188Z,6.20
2022-10-12T04:13:47.413Z,6.10
2022-10-12T04:16:14.380Z,6.10
2022-10-12T04:18:41.277Z,6.10
2022-10-12T04:21:14.637Z,5.90
2022-10-12T04:23:42.508Z,5.90
2022-10-12T04:26:09.476Z,5.90
2022-10-12T04:28:37.345Z,6.00
2022-10-12T04:31:04.280Z,6.10
2022-10-12T04:33:31.301Z,6.10
2022-10-12T04:35:57.938Z,6.20
2022-10-12T04:38:24.879Z,6.00
2022-10-12T04:40:51.685Z,6.20
2022-10-12T04:43:18.813Z,6.10
2022-10-12T04:45:53.228Z,6.10
2022-10-12T04:48:20.127Z,6.10
2022-10-12T04:50:46.850Z,6.10
2022-10-12T04:53:13.772Z,6.20
2022-10-12T04:55:41.057Z,6.30
2022-10-12T04:58:07.994Z,6.30
2022-10-12T05:00:34.718Z,6.20
2022-10-12T05:03:01.634Z,6.00
2022-10-12T05:05:28.652Z,5.90
2022-10-12T05:07:55.537Z,5.80
2022-10-12T05:10:22.452Z,5.90
2022-10-12T05:12:49.445Z,6.00
2022-10-12T05:15:16.276Z,5.90
2022-10-12T05:17:43.099Z,6.00
2022-10-12T05:20:10.557Z,6.00
2022-10-12T05:22:37.838Z,6.00
2022-10-12T05:25:06.024Z,6.00
2022-10-12T05:27:32.937Z,6.00
2022-10-12T05:29:59.605Z,5.80
2022-10-12T05:32:26.649Z,5.70
2022-10-12T05:34:55.056Z,5.60
2022-10-12T05:37:21.956Z,5.60
2022-10-12T05:39:49.842Z,5.60
2022-10-12T05:42:16.834Z,5.60
2022-10-12T05:44:43.566Z,5.70
2022-10-12T05:47:10.519Z,5.50
2022-10-12T05:49:37.224Z,5.50
2022-10-12T05:52:04.336Z,5.50
2022-10-12T05:54:31.340Z,5.60
2022-10-12T05:56:58.756Z,5.50
2022-10-12T05:59:25.712Z,5.50
2022-10-12T06:01:52.826Z,5.60
2022-10-12T06:04:19.801Z,5.60
2022-10-12T06:06:46.801Z,5.50
2022-10-12T06:09:14.661Z,5.60
2022-10-12T06:11:41.700Z,5.50
2022-10-12T06:14:08.386Z,5.60
2022-10-12T06:16:35.386Z,5.60
2022-10-12T06:19:02.392Z,5.80
2022-10-12T06:21:34.222Z,5.90
2022-10-12T06:24:01.399Z,5.90
2022-10-12T06:26:28.532Z,5.90
2022-10-12T06:28:55.583Z,5.90
2022-10-12T06:31:22.522Z,5.90
2022-10-12T06:33:50.923Z,6.00
2022-10-12T06:36:18.027Z,6.10
2022-10-12T06:38:44.926Z,6.20
2022-10-12T06:41:12.087Z,6.20
2022-10-12T06:43:39.029Z,6.30
2022-10-12T06:46:06.208Z,6.20
2022-10-12T06:48:33.989Z,6.20
2022-10-12T06:51:01.787Z,6.10
2022-10-12T06:53:31.032Z,6.20
2022-10-12T06:55:57.964Z,6.20
2022-10-12T06:58:25.173Z,6.30
2022-10-12T07:00:52.496Z,6.40
2022-10-12T07:03:20.267Z,6.40
2022-10-12T07:05:47.000Z,6.70
2022-10-12T07:08:14.185Z,6.90
2022-10-12T07:10:41.104Z,7.10
2022-10-12T07:13:08.088Z,7.20
2022-10-12T07:15:35.250Z,7.40
2022-10-12T07:18:01.890Z,7.60
2022-10-12T07:20:28.870Z,7.80
2022-10-12T07:22:55.860Z,7.90
2022-10-12T07:25:22.888Z,8.20
2022-10-12T07:27:49.675Z,8.30
2022-10-12T07:30:16.440Z,8.60
2022-10-12T07:32:44.479Z,8.90
2022-10-12T07:35:11.913Z,9.20
2022-10-12T07:37:38.859Z,9.60
2022-10-12T07:40:06.488Z,9.70
2022-10-12T07:42:33.324Z,9.80
2022-10-12T07:45:00.122Z,9.80
2022-10-12T07:47:28.791Z,9.80
2022-10-12T07:49:56.697Z,10.00
2022-10-12T07:52:23.735Z,10.20
2022-10-12T07:54:50.752Z,10.30
2022-10-12T07:57:17.409Z,10.20
2022-10-12T07:59:44.072Z,10.40
2022-10-12T08:02:14.101Z,10.50
2022-10-12T08:04:41.010Z,10.70
2022-10-12T08:07:08.078Z,10.80
2022-10-12T08:09:36.204Z,10.90
2022-10-12T08:12:04.418Z,11.10
2022-10-12T08:14:31.349Z,11.20
2022-10-12T08:16:58.307Z,11.30
2022-10-12T08:19:25.407Z,11.30
2022-10-12T08:21:53.216Z,11.20
2022-10-12T08:24:20.415Z,11.40
2022-10-12T08:26:47.352Z,11.30
2022-10-12T08:29:14.393Z,11.40
2022-10-12T08:31:42.222Z,11.40
2022-10-12T08:34:09.632Z,11.40
2022-10-12T08:36:36.791Z,11.50
2022-10-12T08:39:06.784Z,11.40
2022-10-12T08:41:39.064Z,11.70
2022-10-12T08:44:20.853Z,12.80
2022-10-12T08:46:49.125Z,15.00
2022-10-12T08:49:26.151Z,17.00
2022-10-12T08:52:00.153Z,18.40
2022-10-12T08:54:36.427Z,20.30
2022-10-12T08:57:03.174Z,21.60
2022-10-12T08:59:33.026Z,22.10
2022-10-12T09:03:01.711Z,22.20
2022-10-12T09:05:57.336Z,24.00
2022-10-12T09:08:58.470Z,25.50
2022-10-12T09:11:44.060Z,26.30
2022-10-12T09:14:23.750Z,26.90
2022-10-12T09:16:51.846Z,28.60
2022-10-12T09:19:29.314Z,27.20
2022-10-12T09:21:57.512Z,27.00
2022-10-12T09:24:29.001Z,28.80
2022-10-12T09:27:00.773Z,30.70
2022-10-12T09:29:31.125Z,28.40
2022-10-12T09:32:22.160Z,27.30
2022-10-12T09:34:49.633Z,29.00
2022-10-12T09:37:23.088Z,30.40
2022-10-12T09:39:50.566Z,29.50
2022-10-12T09:42:17.870Z,28.70
2022-10-12T09:45:03.946Z,26.20
2022-10-12T09:47:33.208Z,27.10
2022-10-12T09:50:02.373Z,26.80
2022-10-12T09:52:35.300Z,26.40
2022-10-12T09:58:00.571Z,27.50
2022-10-12T10:00:33.311Z,29.10
2022-10-12T10:03:02.004Z,29.40
2022-10-12T10:05:33.028Z,27.50
2022-10-12T10:08:20.267Z,26.90
2022-10-12T10:10:58.737Z,23.90
2022-10-12T10:13:31.674Z,23.30
2022-10-12T10:16:09.334Z,23.00
2022-10-12T10:18:37.782Z,23.50
2022-10-12T10:21:08.230Z,24.40
2022-10-12T10:24:05.651Z,24.30
2022-10-12T10:26:58.012Z,24.10
2022-10-12T10:29:34.902Z,24.80
2022-10-12T10:32:11.847Z,25.60
2022-10-12T10:34:42.166Z,26.00
2022-10-12T10:37:19.900Z,26.00
2022-10-12T10:39:50.079Z,25.90
2022-10-12T10:42:29.235Z,25.20
2022-10-12T10:45:07.013Z,25.10
2022-10-12T10:47:41.479Z,26.60
2022-10-12T10:50:26.967Z,26.90
2022-10-12T10:52:57.038Z,26.30
2022-10-12T10:55:42.167Z,25.40
2022-10-12T10:58:32.866Z,24.60
2022-10-12T11:01:06.081Z,23.40
2022-10-12T11:03:56.293Z,22.80
2022-10-12T11:06:34.925Z,22.30
2022-10-12T11:09:13.999Z,22.00
2022-10-12T11:11:43.316Z,21.80
2022-10-12T11:14:25.390Z,22.00
2022-10-12T11:16:58.399Z,22.30
2022-10-12T11:19:44.340Z,22.90
2022-10-12T11:22:28.996Z,22.90
2022-10-12T11:25:05.888Z,22.80
2022-10-12T11:27:41.641Z,23.40
2022-10-12T11:30:22.673Z,25.20
2022-10-12T11:32:58.881Z,26.00
2022-10-12T11:35:33.878Z,25.70
2022-10-12T11:38:27.230Z,26.40
2022-10-12T11:44:03.877Z,25.20
2022-10-12T11:46:55.928Z,27.80
2022-10-12T11:49:37.937Z,26.30
2022-10-12T11:52:11.021Z,25.80
2022-10-12T11:54:49.558Z,24.80
2022-10-12T11:57:28.592Z,23.30
2022-10-12T12:00:01.446Z,23.30
2022-10-12T12:02:39.277Z,23.90
2022-10-12T12:05:16.797Z,24.20
2022-10-12T12:07:48.600Z,24.70
2022-10-12T12:10:27.830Z,24.40
2022-10-12T12:13:14.425Z,25.10
2022-10-12T12:16:01.335Z,25.60
2022-10-12T12:18:33.355Z,24.50
2022-10-12T12:21:07.890Z,23.90
2022-10-12T12:23:55.146Z,23.40
2022-10-12T12:26:30.353Z,22.90
2022-10-12T12:29:19.752Z,22.40
2022-10-12T12:31:56.153Z,22.00
2022-10-12T12:34:23.354Z,21.50
2022-10-12T12:36:52.087Z,21.70
2022-10-12T12:39:33.942Z,21.90
2022-10-12T12:42:03.326Z,22.30
2022-10-12T12:44:41.502Z,22.20
2022-10-12T12:47:39.923Z,22.00
2022-10-12T12:50:00.544Z,21.20
2022-10-12T12:52:34.637Z,20.70
2022-10-12T12:55:25.578Z,20.40
2022-10-12T12:58:20.134Z,20.30
2022-10-12T13:01:07.964Z,20.30
2022-10-12T13:03:55.970Z,20.60
2022-10-12T13:07:01.771Z,21.40
2022-10-12T13:09:41.380Z,22.60
2022-10-12T13:12:21.542Z,23.00
2022-10-12T13:15:10.595Z,22.40
2022-10-12T13:17:37.376Z,22.40
2022-10-12T13:20:15.918Z,23.10
2022-10-12T13:22:45.864Z,24.50
2022-10-12T13:25:21.273Z,24.90
2022-10-12T13:27:53.093Z,24.80
2022-10-12T13:30:22.980Z,24.10
2022-10-12T13:33:11.368Z,24.10
2022-10-12T13:36:03.675Z,23.30
2022-10-12T13:38:31.094Z,22.40
2022-10-12T13:41:07.049Z,22.30
2022-10-12T13:44:00.748Z,21.60
2022-10-12T13:46:48.945Z,20.30
2022-10-12T13:49:33.569Z,19.40
2022-10-12T13:52:13.654Z,19.40
2022-10-12T13:54:43.776Z,19.50
2022-10-12T13:57:22.713Z,19.60
2022-10-12T14:00:09.098Z,19.60
2022-10-12T14:02:35.953Z,19.90
2022-10-12T14:05:05.339Z,20.20
2022-10-12T14:07:40.440Z,20.40
2022-10-12T14:10:08.687Z,20.40
2022-10-12T14:12:37.088Z,20.50
2022-10-12T14:15:05.021Z,20.40
2022-10-12T14:17:32.021Z,20.50
2022-10-12T14:20:27.281Z,20.50
2022-10-12T14:22:54.859Z,20.30
2022-10-12T14:25:28.605Z,19.70
2022-10-12T14:28:06.941Z,19.30
2022-10-12T14:30:35.168Z,19.40
2022-10-12T14:33:13.023Z,19.40
2022-10-12T14:35:43.643Z,19.40
2022-10-12T14:38:35.268Z,19.10
2022-10-12T14:41:39.636Z,19.20
2022-10-12T14:44:11.546Z,19.10
2022-10-12T14:46:51.675Z,18.90
2022-10-12T14:49:22.708Z,18.90
2022-10-12T14:51:51.578Z,18.80
2022-10-12T14:54:18.981Z,19.00
2022-10-12T14:56:47.247Z,19.10
2022-10-12T14:59:14.336Z,19.40
2022-10-12T15:01:42.144Z,19.60
2022-10-12T15:04:13.786Z,19.10
2022-10-12T15:06:41.250Z,19.00
2022-10-12T15:09:08.032Z,19.00
2022-10-12T15:11:35.056Z,18.90
2022-10-12T15:14:01.683Z,18.60
2022-10-12T15:16:29.326Z,18.60
2022-10-12T15:18:56.200Z,18.30
2022-10-12T15:21:23.066Z,18.20
2022-10-12T15:23:49.953Z,18.10
2022-10-12T15:26:18.147Z,18.10
2022-10-12T15:28:45.297Z,18.10
2022-10-12T15:31:18.874Z,18.10
2022-10-12T15:33:46.645Z,18.20
2022-10-12T15:36:13.361Z,18.10
2022-10-12T15:38:40.192Z,18.00
2022-10-12T15:41:15.819Z,17.80
2022-10-12T15:43:42.669Z,17.70
2022-10-12T15:46:11.410Z,17.80
2022-10-12T15:48:40.130Z,17.60
2022-10-12T15:51:19.058Z,17.50
2022-10-12T15:53:46.055Z,17.60
2022-10-12T15:56:16.347Z,17.70
2022-10-12T15:58:43.875Z,17.70
2022-10-12T16:01:16.308Z,17.80
2022-10-12T16:03:43.622Z,17.70
2022-10-12T16:06:10.444Z,17.60
2022-10-12T16:08:37.390Z,17.50
2022-10-12T16:11:06.878Z,17.50
2022-10-12T16:13:33.917Z,17.40
2022-10-12T16:16:01.260Z,17.40
2022-10-12T16:18:28.032Z,17.40
2022-10-12T16:20:55.031Z,17.20
2022-10-12T16:23:29.161Z,17.00
2022-10-12T16:25:57.255Z,17.00
2022-10-12T16:28:25.392Z,17.00
2022-10-12T16:30:52.959Z,16.80
2022-10-12T16:33:20.232Z,16.80
2022-10-12T16:35:47.656Z,16.70
2022-10-12T16:38:15.215Z,16.70
2022-10-12T16:40:42.929Z,16.70
2022-10-12T16:43:10.634Z,16.80
2022-10-12T16:45:37.480Z,16.80
2022-10-12T16:48:04.698Z,16.70
2022-10-12T16:50:31.567Z,16.50
2022-10-12T16:52:58.569Z,16.80
2022-10-12T16:55:25.578Z,16.70
2022-10-12T16:57:52.630Z,16.70
2022-10-12T17:00:20.181Z,16.60
2022-10-12T17:02:48.092Z,16.40
2022-10-12T17:05:15.090Z,16.50
2022-10-12T17:07:42.066Z,16.40
2022-10-12T17:10:09.699Z,16.40
2022-10-12T17:12:36.782Z,16.40
2022-10-12T17:15:04.869Z,16.40
2022-10-12T17:17:32.005Z,16.50
2022-10-12T17:19:59.144Z,16.50
2022-10-12T17:22:26.084Z,16.30
2022-10-12T17:24:53.267Z,16.00
2022-10-12T17:27:20.123Z,16.00
2022-10-12T17:29:46.739Z,15.70
2022-10-12T17:32:13.902Z,15.70
2022-10-12T17:34:43.296Z,15.80
2022-10-12T17:37:11.350Z,16.00
2022-10-12T17:39:41.712Z,16.10
2022-10-12T17:42:09.295Z,16.00
2022-10-12T17:44:37.358Z,15.80
2022-10-12T17:47:04.353Z,15.70
2022-10-12T17:49:31.456Z,15.50
2022-10-12T17:51:58.435Z,15.50
2022-10-12T17:54:26.765Z,15.50
2022-10-12T17:56:55.498Z,15.50
2022-10-12T17:59:22.777Z,15.50
2022-10-12T18:01:51.432Z,15.60
2022-10-12T18:04:18.710Z,15.50
2022-10-12T18:06:47.864Z,15.50
2022-10-12T18:09:14.940Z,15.50
2022-10-12T18:11:41.794Z,15.50
2022-10-12T18:14:10.421Z,15.40
2022-10-12T18:16:38.077Z,15.40
2022-10-12T18:19:06.486Z,15.40
2022-10-12T18:21:34.247Z,15.40
2022-10-12T18:24:07.011Z,15.40
2022-10-12T18:26:33.845Z,15.40
2022-10-12T18:29:01.878Z,15.40
2022-10-12T18:31:30.143Z,15.30
2022-10-12T18:33:57.933Z,15.20
2022-10-12T18:36:26.430Z,15.10
2022-10-12T18:38:53.418Z,15.10
2022-10-12T18:41:22.550Z,15.00
2022-10-12T18:43:55.304Z,15.00
2022-10-12T18:46:22.118Z,14.90
2022-10-12T18:48:49.349Z,14.90
2022-10-12T18:51:23.985Z,14.80
2022-10-12T18:53:51.464Z,14.80
2022-10-12T18:56:19.399Z,14.80
2022-10-12T18:58:46.639Z,14.90
2022-10-12T19:01:17.366Z,14.90
2022-10-12T19:03:44.314Z,14.80
2022-10-12T19:06:13.682Z,14.80
2022-10-12T19:08:43.433Z,14.80
2022-10-12T19:11:11.612Z,14.70
2022-10-12T19:13:39.348Z,14.80
2022-10-12T19:16:08.261Z,14.70
2022-10-12T19:18:36.338Z,14.80
2022-10-12T19:21:10.593Z,14.80
2022-10-12T19:23:38.194Z,14.80
2022-10-12T19:26:07.972Z,14.70
2022-10-12T19:28:34.847Z,14.70
2022-10-12T19:31:03.144Z,14.80
2022-10-12T19:33:30.541Z,14.70
2022-10-12T19:35:58.273Z,14.60
2022-10-12T19:38:25.325Z,14.60
2022-10-12T19:40:52.500Z,14.60
2022-10-12T19:43:19.416Z,14.50
2022-10-12T19:45:46.491Z,14.50
2022-10-12T19:48:13.573Z,14.40
2022-10-12T19:50:40.568Z,14.30
2022-10-12T19:53:08.309Z,14.30
2022-10-12T19:55:38.981Z,14.30
2022-10-12T19:58:07.132Z,14.40
2022-10-12T20:00:35.546Z,14.40
2022-10-12T20:03:03.280Z,14.40
2022-10-12T20:05:30.308Z,14.40
2022-10-12T20:07:57.317Z,14.30
2022-10-12T20:10:24.303Z,14.20
2022-10-12T20:12:51.355Z,14.20
2022-10-12T20:15:18.506Z,14.10
2022-10-12T20:17:45.460Z,14.10
2022-10-12T20:20:12.428Z,14.10
2022-10-12T20:22:39.376Z,14.10
2022-10-12T20:25:09.610Z,14.10
2022-10-12T20:27:37.199Z,14.10
2022-10-12T20:30:05.449Z,14.10
2022-10-12T20:32:34.528Z,14.10
2022-10-12T20:35:02.069Z,14.10
2022-10-12T20:37:28.864Z,14.10
2022-10-12T20:39:55.853Z,14.10
2022-10-12T20:42:24.404Z,14.20
2022-10-12T20:44:51.779Z,14.20
2022-10-12T20:47:18.921Z,14.30
2022-10-12T20:49:47.133Z,14.20
2022-10-12T20:52:13.973Z,14.20
2022-10-12T20:54:40.991Z,14.20
2022-10-12T20:57:07.637Z,14.30
2022-10-12T20:59:36.909Z,14.20
2022-10-12T21:02:04.259Z,14.20
2022-10-12T21:04:36.063Z,14.20
2022-10-12T21:07:04.919Z,14.20
2022-10-12T21:09:32.804Z,14.10
2022-10-12T21:11:59.931Z,14.10
2022-10-12T21:14:26.873Z,14.10
2022-10-12T21:16:53.846Z,14.00
2022-10-12T21:19:20.662Z,14.00
2022-10-12T21:21:53.192Z,14.00
2022-10-12T21:24:21.951Z,14.00
2022-10-12T21:26:48.772Z,14.10
2022-10-12T21:29:15.676Z,14.10
2022-10-12T21:31:42.766Z,14.00
2022-10-12T21:34:10.882Z,14.00
2022-10-12T21:36:38.405Z,14.10
2022-10-12T21:39:12.194Z,14.10
2022-10-12T21:41:39.417Z,14.10
2022-10-12T21:44:06.877Z,14.10
2022-10-12T21:46:34.908Z,14.10
2022-10-12T21:49:03.290Z,14.10
2022-10-12T21:51:31.408Z,14.20
2022-10-12T21:53:58.900Z,14.20
2022-10-12T21:56:29.025Z,14.20
2022-10-12T21:58:57.979Z,14.20
2022-10-12T22:01:34.656Z,14.20
2022-10-12T22:04:20.659Z,14.10
2022-10-12T22:06:47.828Z,14.10
2022-10-12T22:09:18.882Z,14.10
2022-10-12T22:11:46.827Z,14.10
2022-10-12T22:14:16.029Z,14.10
2022-10-12T22:16:46.069Z,14.20
2022-10-12T22:19:18.670Z,14.20
2022-10-12T22:21:47.544Z,14.20
2022-10-12T22:24:14.388Z,14.30
2022-10-12T22:26:41.670Z,14.30
2022-10-12T22:29:10.182Z,14.30
2022-10-12T22:31:38.974Z,14.20
2022-10-12T22:34:06.717Z,14.20
2022-10-12T22:36:34.138Z,14.20
2022-10-12T22:39:01.043Z,14.20
2022-10-12T22:41:28.091Z,14.10
2022-10-12T22:43:56.824Z,14.20
2022-10-12T22:46:25.533Z,14.20
2022-10-12T22:48:54.564Z,14.20
2022-10-12T22:51:33.280Z,14.20
2022-10-12T22:54:01.256Z,14.20
2022-10-12T22:56:28.629Z,14.20
2022-10-12T22:58:57.745Z,14.10
2022-10-12T23:01:27.942Z,14.10
2022-10-12T23:03:56.454Z,14.10
2022-10-12T23:06:24.387Z,14.10
2022-10-12T23:08:52.062Z,14.00
2022-10-12T23:11:21.796Z,14.00
2022-10-12T23:13:49.113Z,14.00
2022-10-12T23:16:27.293Z,14.00
2022-10-12T23:18:59.315Z,14.00
2022-10-12T23:21:28.883Z,13.90
2022-10-12T23:23:56.201Z,13.80
2022-10-12T23:26:24.671Z,13.80
2022-10-12T23:28:58.129Z,13.80
2022-10-12T23:31:28.596Z,13.80
2022-10-12T23:33:57.706Z,13.80
2022-10-12T23:36:24.672Z,13.80
2022-10-12T23:38:51.937Z,13.70
2022-10-12T23:41:18.724Z,13.70
2022-10-12T23:43:45.815Z,13.70
2022-10-12T23:46:13.630Z,13.70
2022-10-12T23:48:40.844Z,13.70
2022-10-12T23:51:09.544Z,13.60
2022-10-12T23:53:37.485Z,13.50
2022-10-12T23:56:05.137Z,13.60
2022-10-12T23:58:32.133Z,13.60
